createdAt,value
2018-02-21T00:01:21.600Z,66.27
2018-02-21T00:03:47.855Z,68.30
2018-02-21T00:06:14.076Z,66.37
2018-02-21T00:08:40.324Z,65.67
2018-02-21T00:11:06.559Z,70.13
2018-02-21T00:13:32.836Z,67.40
2018-02-21T00:15:59.042Z,66.00
2018-02-21T00:18:25.261Z,70.33
2018-02-21T00:20:51.496Z,68.70
2018-02-21T00:23:17.719Z,71.63
2018-02-21T00:25:43.962Z,68.33
2018-02-21T00:28:10.240Z,70.43
2018-02-21T00:30:36.451Z,71.47
2018-02-21T00:33:02.687Z,69.70
2018-02-21T00:35:29.676Z,72.47
2018-02-21T00:37:55.919Z,71.27
2018-02-21T00:40:26.086Z,69.57
2018-02-21T00:42:57.132Z,66.10
2018-02-21T00:45:26.190Z,69.00
2018-02-21T00:47:52.419Z,74.97
2018-02-21T00:50:18.676Z,67.63
2018-02-21T00:52:44.911Z,68.47
2018-02-21T00:55:11.906Z,72.83
2018-02-21T00:57:38.119Z,71.87
2018-02-21T01:00:04.356Z,74.57
2018-02-21T01:02:30.567Z,73.60
2018-02-21T01:04:56.794Z,70.23
2018-02-21T01:07:23.094Z,71.30
2018-02-21T01:09:49.334Z,74.47
2018-02-21T01:12:16.107Z,74.73
2018-02-21T01:14:42.340Z,71.20
2018-02-21T01:17:08.594Z,69.43
2018-02-21T01:19:34.811Z,72.20
2018-02-21T01:22:01.054Z,72.70
2018-02-21T01:24:27.278Z,73.60
2018-02-21T01:26:53.527Z,72.70
2018-02-21T01:29:19.751Z,76.40
2018-02-21T01:31:46.043Z,73.90
2018-02-21T01:34:12.274Z,74.40
2018-02-21T01:36:38.899Z,66.57
2018-02-21T01:39:05.131Z,70.47
2018-02-21T01:41:31.359Z,70.87
2018-02-21T01:43:57.598Z,71.30
2018-02-21T01:46:23.820Z,70.87
2018-02-21T01:48:50.066Z,70.40
2018-02-21T01:51:16.357Z,70.63
2018-02-21T01:53:42.578Z,71.23
2018-02-21T01:56:08.834Z,69.63
2018-02-21T01:58:35.788Z,73.37
2018-02-21T02:01:02.021Z,70.80
2018-02-21T02:03:28.997Z,73.83
2018-02-21T02:05:55.295Z,73.33
2018-02-21T02:08:21.539Z,70.30
2018-02-21T02:10:48.085Z,71.23
2018-02-21T02:13:14.887Z,69.57
2018-02-21T02:15:44.108Z,69.90
2018-02-21T02:18:10.344Z,70.63
2018-02-21T02:20:36.623Z,69.57
2018-02-21T02:23:03.607Z,68.80
2018-02-21T02:25:29.859Z,71.90
2018-02-21T02:27:56.832Z,77.40
2018-02-21T02:30:23.814Z,72.27
2018-02-21T02:32:50.051Z,69.97
2018-02-21T02:35:16.270Z,72.03
2018-02-21T02:37:42.487Z,72.87
2018-02-21T02:40:08.734Z,73.37
2018-02-21T02:42:34.934Z,72.27
2018-02-21T02:45:01.943Z,71.10
2018-02-21T02:47:28.951Z,72.03
2018-02-21T02:49:55.183Z,69.07
2018-02-21T02:52:21.428Z,68.50
2018-02-21T02:54:47.703Z,73.77
2018-02-21T02:57:13.946Z,71.37
2018-02-21T02:59:40.198Z,70.17
2018-02-21T03:02:06.475Z,71.57
2018-02-21T03:04:32.712Z,67.93
2018-02-21T03:06:59.018Z,69.10
2018-02-21T03:09:25.276Z,71.27
2018-02-21T03:11:51.603Z,70.83
2018-02-21T03:14:21.878Z,70.40
2018-02-21T03:16:48.143Z,76.77
2018-02-21T03:19:14.431Z,70.13
2018-02-21T03:21:40.697Z,76.27
2018-02-21T03:24:06.959Z,71.37
2018-02-21T03:26:33.194Z,67.27
2018-02-21T03:28:59.470Z,68.70
2018-02-21T03:31:25.721Z,72.20
2018-02-21T03:33:51.962Z,72.07
2018-02-21T03:36:18.232Z,74.13
2018-02-21T03:38:44.479Z,69.73
2018-02-21T03:41:10.719Z,69.53
2018-02-21T03:43:37.039Z,70.23
2018-02-21T03:46:03.400Z,70.13
2018-02-21T03:48:29.643Z,72.43
2018-02-21T03:50:55.908Z,66.73
2018-02-21T03:53:22.142Z,71.27
2018-02-21T03:55:48.442Z,71.47
2018-02-21T03:58:15.195Z,76.57
2018-02-21T04:00:41.469Z,79.33
2018-02-21T04:03:07.695Z,77.23
2018-02-21T04:05:33.962Z,69.43
2018-02-21T04:08:00.235Z,79.57
2018-02-21T04:10:26.478Z,73.63
2018-02-21T04:12:53.030Z,76.77
2018-02-21T04:15:20.014Z,74.37
2018-02-21T04:17:46.246Z,75.43
2018-02-21T04:20:12.544Z,73.77
2018-02-21T04:22:38.771Z,75.30
2018-02-21T04:25:05.767Z,75.50
2018-02-21T04:27:32.024Z,71.37
2018-02-21T04:29:58.368Z,80.30
2018-02-21T04:32:24.619Z,72.20
2018-02-21T04:34:50.881Z,77.97
2018-02-21T04:37:17.134Z,76.80
2018-02-21T04:39:43.406Z,70.47
2018-02-21T04:42:09.658Z,75.20
2018-02-21T04:44:36.455Z,74.07
2018-02-21T04:47:02.710Z,70.37
2018-02-21T04:49:29.127Z,73.60
2018-02-21T04:51:55.374Z,71.33
2018-02-21T04:54:27.748Z,73.83
2018-02-21T04:57:10.603Z,68.30
2018-02-21T04:59:53.591Z,72.80
2018-02-21T05:02:20.062Z,78.03
2018-02-21T05:04:46.327Z,69.17
2018-02-21T05:07:13.447Z,74.37
2018-02-21T05:09:39.691Z,73.67
2018-02-21T05:12:10.643Z,72.50
2018-02-21T05:14:36.950Z,103.53
2018-02-21T05:17:03.227Z,135.90
2018-02-21T05:19:29.467Z,76.97
2018-02-21T05:21:55.728Z,77.00
2018-02-21T05:24:21.978Z,73.00
2018-02-21T05:26:48.227Z,74.60
2018-02-21T05:29:14.500Z,78.03
2018-02-21T05:31:40.742Z,75.03
2018-02-21T05:34:07.604Z,76.17
2018-02-21T05:36:33.901Z,197.03
2018-02-21T05:39:00.144Z,94.70
2018-02-21T05:41:26.395Z,75.87
2018-02-21T05:43:53.827Z,74.23
2018-02-21T05:46:20.046Z,75.80
2018-02-21T05:48:47.038Z,76.40
2018-02-21T05:51:13.288Z,75.97
2018-02-21T05:53:39.563Z,79.50
2018-02-21T05:56:05.831Z,73.10
2018-02-21T05:58:32.095Z,71.60
2018-02-21T06:00:58.344Z,75.33
2018-02-21T06:03:24.587Z,69.77
2018-02-21T06:05:50.843Z,73.93
2018-02-21T06:08:17.096Z,70.37
2018-02-21T06:10:43.350Z,71.33
2018-02-21T06:13:09.642Z,67.90
2018-02-21T06:15:35.897Z,210.27
2018-02-21T06:18:02.163Z,131.33
2018-02-21T06:20:28.447Z,83.47
2018-02-21T06:22:54.724Z,80.53
2018-02-21T06:25:21.082Z,72.03
2018-02-21T06:27:47.331Z,68.87
2018-02-21T06:30:13.582Z,71.10
2018-02-21T06:32:39.868Z,67.67
2018-02-21T06:35:06.111Z,69.33
2018-02-21T06:37:32.375Z,70.17
2018-02-21T06:39:58.716Z,73.50
2018-02-21T06:42:25.286Z,72.37
2018-02-21T06:44:52.271Z,79.37
2018-02-21T06:47:18.514Z,72.30
2018-02-21T06:49:44.729Z,77.07
2018-02-21T06:52:10.987Z,78.30
2018-02-21T06:54:37.212Z,75.90
2018-02-21T06:57:03.479Z,149.57
2018-02-21T06:59:29.715Z,112.00
2018-02-21T07:01:55.976Z,73.83
2018-02-21T07:04:22.260Z,75.40
2018-02-21T07:06:48.532Z,72.87
2018-02-21T07:09:14.809Z,76.03
2018-02-21T07:11:41.026Z,74.10
2018-02-21T07:14:09.134Z,80.53
2018-02-21T07:16:35.356Z,71.47
2018-02-21T07:19:01.607Z,119.63
2018-02-21T07:21:28.579Z,84.83
2018-02-21T07:23:55.562Z,75.77
2018-02-21T07:26:21.851Z,72.23
2018-02-21T07:28:48.103Z,70.03
2018-02-21T07:31:14.506Z,188.10
2018-02-21T07:33:41.628Z,81.60
2018-02-21T07:36:07.851Z,72.03
2018-02-21T07:38:34.112Z,69.97
2018-02-21T07:41:00.344Z,69.43
2018-02-21T07:43:27.337Z,71.67
2018-02-21T07:45:53.600Z,72.90
2018-02-21T07:48:19.831Z,78.47
2018-02-21T07:50:46.818Z,69.67
2018-02-21T07:53:13.059Z,74.17
2018-02-21T07:55:39.342Z,69.83
2018-02-21T07:58:05.616Z,73.40
2018-02-21T08:00:32.359Z,70.67
2018-02-21T08:02:58.617Z,65.73
2018-02-21T08:05:24.870Z,123.07
2018-02-21T08:07:51.169Z,149.60
2018-02-21T08:10:17.611Z,93.03
2018-02-21T08:12:43.851Z,72.73
2018-02-21T08:15:10.094Z,76.70
2018-02-21T08:17:36.311Z,73.53
2018-02-21T08:20:02.975Z,73.23
2018-02-21T08:22:29.223Z,75.07
2018-02-21T08:24:55.451Z,73.07
2018-02-21T08:27:21.684Z,75.40
2018-02-21T08:29:47.902Z,73.23
2018-02-21T08:32:14.202Z,74.63
2018-02-21T08:34:40.474Z,79.97
2018-02-21T08:37:07.497Z,69.70
2018-02-21T08:39:33.840Z,75.73
2018-02-21T08:42:00.116Z,75.23
2018-02-21T08:44:26.363Z,74.87
2018-02-21T08:46:52.611Z,75.63
2018-02-21T08:49:18.836Z,98.63
2018-02-21T08:51:45.202Z,100.87
2018-02-21T08:54:11.429Z,74.27
2018-02-21T08:56:37.712Z,76.10
2018-02-21T08:59:03.962Z,75.57
2018-02-21T09:01:30.190Z,76.90
2018-02-21T09:03:56.577Z,80.53
2018-02-21T09:06:22.811Z,87.37
2018-02-21T09:08:49.802Z,81.80
2018-02-21T09:11:16.167Z,80.67
2018-02-21T09:13:42.433Z,90.53
2018-02-21T09:16:08.667Z,83.83
2018-02-21T09:18:34.951Z,82.53
2018-02-21T09:21:01.203Z,81.87
2018-02-21T09:23:27.556Z,86.47
2018-02-21T09:25:53.818Z,83.20
2018-02-21T09:28:20.270Z,83.77
2018-02-21T09:30:46.494Z,80.60
2018-02-21T09:33:12.727Z,82.17
2018-02-21T09:35:39.099Z,82.17
2018-02-21T09:38:05.326Z,79.77
2018-02-21T09:40:31.575Z,83.07
2018-02-21T09:42:57.804Z,79.83
2018-02-21T09:45:24.054Z,81.80
2018-02-21T09:47:50.754Z,91.60
2018-02-21T09:50:16.996Z,90.37
2018-02-21T09:52:43.943Z,81.13
2018-02-21T09:55:10.483Z,76.27
2018-02-21T09:57:36.719Z,76.47
2018-02-21T10:00:03.748Z,81.70
2018-02-21T10:02:30.007Z,78.53
2018-02-21T10:04:56.267Z,81.17
2018-02-21T10:07:22.512Z,78.00
2018-02-21T10:09:48.768Z,74.87
2018-02-21T10:12:15.016Z,77.63
2018-02-21T10:14:41.271Z,78.43
2018-02-21T10:17:07.592Z,78.27
2018-02-21T10:19:33.847Z,76.87
2018-02-21T10:22:00.091Z,75.87
2018-02-21T10:24:26.318Z,80.53
2018-02-21T10:26:52.557Z,80.97
2018-02-21T10:29:18.779Z,81.03
2018-02-21T10:31:45.075Z,78.70
2018-02-21T10:34:11.364Z,79.33
2018-02-21T10:36:37.932Z,80.77
2018-02-21T10:39:04.224Z,82.10
2018-02-21T10:41:30.503Z,78.43
2018-02-21T10:43:56.772Z,74.80
2018-02-21T10:46:23.249Z,86.20
2018-02-21T10:48:50.262Z,85.47
2018-02-21T10:51:16.520Z,90.83
2018-02-21T10:53:42.796Z,103.57
2018-02-21T10:56:09.024Z,93.27
2018-02-21T10:58:36.047Z,93.27
2018-02-21T11:01:08.939Z,98.20
2018-02-21T11:03:35.918Z,98.73
2018-02-21T11:06:02.482Z,106.13
2018-02-21T11:08:28.720Z,93.73
2018-02-21T11:10:54.981Z,89.67
2018-02-21T11:13:21.227Z,91.40
2018-02-21T11:15:47.680Z,92.13
2018-02-21T11:18:15.843Z,85.80
2018-02-21T11:20:43.184Z,87.37
2018-02-21T11:23:10.146Z,81.20
2018-02-21T11:25:37.136Z,83.17
2018-02-21T11:28:03.384Z,88.70
2018-02-21T11:30:29.641Z,92.07
2018-02-21T11:32:55.869Z,96.87
2018-02-21T11:35:22.171Z,86.63
2018-02-21T11:37:48.394Z,83.97
2018-02-21T11:40:14.626Z,86.50
2018-02-21T11:42:40.884Z,87.63
2018-02-21T11:45:07.122Z,89.07
2018-02-21T11:47:34.087Z,92.77
2018-02-21T11:50:00.351Z,88.73
2018-02-21T11:52:26.583Z,85.53
2018-02-21T11:54:52.803Z,85.27
2018-02-21T11:57:19.074Z,84.83
2018-02-21T11:59:45.415Z,81.07
2018-02-21T12:02:11.687Z,86.47
2018-02-21T12:04:38.786Z,80.20
2018-02-21T12:07:05.046Z,77.17
2018-02-21T12:09:31.507Z,81.83
2018-02-21T12:11:57.771Z,78.50
2018-02-21T12:14:24.788Z,83.57
2018-02-21T12:16:51.047Z,78.63
2018-02-21T12:19:17.271Z,81.57
2018-02-21T12:21:43.502Z,84.73
2018-02-21T12:24:09.743Z,77.17
2018-02-21T12:26:35.986Z,75.87
2018-02-21T12:29:02.303Z,75.40
2018-02-21T12:31:28.556Z,75.77
2018-02-21T12:33:54.796Z,69.67
2018-02-21T12:36:21.795Z,73.57
2018-02-21T12:38:53.974Z,70.73
2018-02-21T12:41:26.209Z,77.27
2018-02-21T12:43:52.451Z,69.77
2018-02-21T12:46:18.690Z,74.10
2018-02-21T12:48:44.942Z,66.57
2018-02-21T12:51:11.195Z,72.03
2018-02-21T12:53:37.572Z,67.50
2018-02-21T12:56:03.830Z,69.20
2018-02-21T12:58:30.068Z,73.90
2018-02-21T13:00:56.315Z,78.27
2018-02-21T13:03:22.530Z,74.80
2018-02-21T13:05:48.791Z,70.20
2018-02-21T13:08:15.480Z,73.73
2018-02-21T13:10:41.730Z,71.17
2018-02-21T13:13:07.967Z,75.33
2018-02-21T13:15:34.223Z,62.27
2018-02-21T13:18:00.942Z,62.80
2018-02-21T13:20:27.194Z,61.67
2018-02-21T13:22:53.421Z,57.93
2018-02-21T13:25:19.690Z,57.33
2018-02-21T13:27:45.897Z,55.43
2018-02-21T13:30:12.148Z,51.63
2018-02-21T13:32:38.391Z,57.20
2018-02-21T13:35:05.057Z,57.63
2018-02-21T13:37:31.299Z,54.43
2018-02-21T13:39:58.291Z,57.03
2018-02-21T13:42:24.519Z,59.63
2018-02-21T13:44:50.747Z,60.07
2018-02-21T13:47:16.987Z,54.43
2018-02-21T13:49:43.930Z,53.07
2018-02-21T13:52:10.919Z,53.77
2018-02-21T13:54:37.146Z,51.73
2018-02-21T13:57:03.406Z,57.33
2018-02-21T13:59:29.615Z,53.43
2018-02-21T14:01:55.858Z,53.83
2018-02-21T14:04:22.203Z,55.07
2018-02-21T14:06:48.422Z,53.47
2018-02-21T14:09:14.670Z,52.50
2018-02-21T14:11:40.914Z,55.47
2018-02-21T14:14:07.151Z,53.53
2018-02-21T14:16:33.371Z,53.27
2018-02-21T14:18:59.718Z,56.63
2018-02-21T14:21:25.922Z,53.67
2018-02-21T14:23:52.158Z,48.90
2018-02-21T14:26:18.398Z,45.53
2018-02-21T14:28:44.684Z,49.33
2018-02-21T14:31:10.887Z,49.30
2018-02-21T14:33:37.186Z,48.33
2018-02-21T14:36:03.428Z,44.80
2018-02-21T14:38:29.657Z,44.00
2018-02-21T14:40:55.887Z,45.30
2018-02-21T14:43:22.106Z,46.17
2018-02-21T14:45:48.426Z,48.43
2018-02-21T14:48:14.647Z,41.27
2018-02-21T14:50:40.897Z,39.53
2018-02-21T14:53:07.120Z,42.20
2018-02-21T14:55:33.534Z,35.83
2018-02-21T14:57:59.820Z,41.27
2018-02-21T15:00:26.024Z,41.73
2018-02-21T15:02:52.440Z,39.47
2018-02-21T15:05:19.674Z,45.47
2018-02-21T15:07:47.086Z,43.30
2018-02-21T15:10:14.055Z,35.97
2018-02-21T15:12:40.305Z,36.77
2018-02-21T15:15:06.538Z,39.30
2018-02-21T15:17:32.919Z,35.83
2018-02-21T15:19:59.129Z,33.37
2018-02-21T15:22:25.811Z,33.83
2018-02-21T15:24:52.034Z,34.57
2018-02-21T15:27:18.310Z,36.67
2018-02-21T15:29:44.540Z,34.83
2018-02-21T15:32:10.956Z,35.57
2018-02-21T15:34:37.741Z,34.73
2018-02-21T15:37:03.971Z,32.83
2018-02-21T15:39:30.212Z,37.87
2018-02-21T15:41:57.121Z,36.47
2018-02-21T15:44:23.384Z,36.37
2018-02-21T15:46:49.631Z,34.67
2018-02-21T15:49:15.879Z,36.20
2018-02-21T15:51:42.102Z,36.23
2018-02-21T15:54:09.083Z,32.83
2018-02-21T15:56:35.350Z,36.83
2018-02-21T15:59:01.574Z,40.20
2018-02-21T16:01:27.866Z,35.67
2018-02-21T16:03:54.107Z,39.07
2018-02-21T16:06:21.213Z,37.77
2018-02-21T16:08:48.211Z,38.60
2018-02-21T16:11:14.422Z,43.43
2018-02-21T16:13:40.700Z,41.60
2018-02-21T16:16:06.935Z,40.37
2018-02-21T16:18:33.159Z,42.40
2018-02-21T16:20:59.450Z,40.83
2018-02-21T16:23:25.780Z,44.27
2018-02-21T16:25:54.902Z,39.80
2018-02-21T16:28:21.359Z,75.57
2018-02-21T16:30:47.629Z,61.63
2018-02-21T16:33:13.842Z,44.87
2018-02-21T16:35:40.073Z,44.77
2018-02-21T16:38:06.309Z,44.23
2018-02-21T16:40:32.539Z,43.63
2018-02-21T16:42:58.776Z,43.30
2018-02-21T16:45:25.267Z,46.87
2018-02-21T16:47:51.486Z,45.47
2018-02-21T16:50:17.745Z,46.53
2018-02-21T16:52:44.999Z,44.63
2018-02-21T16:55:11.299Z,50.90
2018-02-21T16:57:37.591Z,49.07
2018-02-21T17:00:03.824Z,51.73
2018-02-21T17:02:30.803Z,48.10
2018-02-21T17:04:57.010Z,45.77
2018-02-21T17:07:23.267Z,44.87
2018-02-21T17:09:49.856Z,48.10
2018-02-21T17:12:16.431Z,48.73
2018-02-21T17:14:42.676Z,48.40
2018-02-21T17:17:08.922Z,50.37
2018-02-21T17:19:35.150Z,49.97
2018-02-21T17:22:01.383Z,43.73
2018-02-21T17:24:27.594Z,47.37
2018-02-21T17:26:54.252Z,63.73
2018-02-21T17:29:20.515Z,59.40
2018-02-21T17:31:51.497Z,51.50
2018-02-21T17:34:17.730Z,50.03
2018-02-21T17:36:44.361Z,79.70
2018-02-21T17:39:17.631Z,67.07
2018-02-21T17:41:43.851Z,52.00
2018-02-21T17:44:10.164Z,51.10
2018-02-21T17:46:36.375Z,48.73
2018-02-21T17:49:02.607Z,48.60
2018-02-21T17:51:28.822Z,47.17
2018-02-21T17:53:55.087Z,48.03
2018-02-21T17:56:21.323Z,46.73
2018-02-21T17:58:47.646Z,44.27
2018-02-21T18:01:13.896Z,48.03
2018-02-21T18:03:40.108Z,47.63
2018-02-21T18:06:06.484Z,52.50
2018-02-21T18:08:32.733Z,51.37
2018-02-21T18:10:58.967Z,52.33
2018-02-21T18:13:25.178Z,53.00
2018-02-21T18:15:51.422Z,51.03
2018-02-21T18:18:17.626Z,51.97
2018-02-21T18:20:43.878Z,45.80
2018-02-21T18:23:10.128Z,48.57
2018-02-21T18:25:36.502Z,44.60
2018-02-21T18:28:02.750Z,61.07
2018-02-21T18:30:28.954Z,127.40
2018-02-21T18:32:55.195Z,49.50
2018-02-21T18:35:21.515Z,50.63
2018-02-21T18:37:48.934Z,48.33
2018-02-21T18:40:15.135Z,44.47
2018-02-21T18:42:41.366Z,56.97
2018-02-21T18:45:07.838Z,53.73
2018-02-21T18:47:34.070Z,47.97
2018-02-21T18:50:00.267Z,46.60
2018-02-21T18:52:26.549Z,46.60
2018-02-21T18:54:52.750Z,49.63
2018-02-21T18:57:18.998Z,48.33
2018-02-21T18:59:45.219Z,55.30
2018-02-21T19:02:11.530Z,56.30
2018-02-21T19:04:37.763Z,52.87
2018-02-21T19:07:03.992Z,57.40
2018-02-21T19:09:30.243Z,66.37
2018-02-21T19:11:56.502Z,65.70
2018-02-21T19:14:22.812Z,68.00
2018-02-21T19:16:49.003Z,68.30
2018-02-21T19:19:15.215Z,58.20
2018-02-21T19:21:42.231Z,61.00
2018-02-21T19:24:08.462Z,65.97
2018-02-21T19:26:34.768Z,48.57
2018-02-21T19:29:01.015Z,46.10
2018-02-21T19:31:28.195Z,41.30
2018-02-21T19:33:54.427Z,44.67
2018-02-21T19:36:20.655Z,78.57
2018-02-21T19:38:47.423Z,76.90
2018-02-21T19:41:14.388Z,45.83
2018-02-21T19:43:40.599Z,41.40
2018-02-21T19:46:07.566Z,50.97
2018-02-21T19:48:33.783Z,59.53
2018-02-21T19:51:00.036Z,63.70
2018-02-21T19:53:27.951Z,59.37
2018-02-21T19:55:54.190Z,49.07
2018-02-21T19:58:20.405Z,43.63
2018-02-21T20:00:46.694Z,44.50
2018-02-21T20:03:12.944Z,43.97
2018-02-21T20:05:39.180Z,43.53
2018-02-21T20:08:05.402Z,42.17
2018-02-21T20:10:31.642Z,46.20
2018-02-21T20:12:57.983Z,45.17
2018-02-21T20:15:24.218Z,41.50
2018-02-21T20:17:51.251Z,42.00
2018-02-21T20:20:17.562Z,43.17
2018-02-21T20:22:43.816Z,42.90
2018-02-21T20:25:10.087Z,40.10
2018-02-21T20:27:38.039Z,43.80
2018-02-21T20:30:04.282Z,39.80
2018-02-21T20:32:31.281Z,43.03
2018-02-21T20:34:57.522Z,45.70
2018-02-21T20:37:23.804Z,46.80
2018-02-21T20:39:50.782Z,50.60
2018-02-21T20:42:17.744Z,42.80
2018-02-21T20:44:44.049Z,41.03
2018-02-21T20:47:11.061Z,44.10
2018-02-21T20:49:37.472Z,44.17
2018-02-21T20:52:03.722Z,69.00
2018-02-21T20:54:30.041Z,153.37
2018-02-21T20:56:56.244Z,59.93
2018-02-21T20:59:22.543Z,49.90
2018-02-21T21:01:49.507Z,47.50
2018-02-21T21:04:15.754Z,48.93
2018-02-21T21:06:41.975Z,46.00
2018-02-21T21:09:08.226Z,48.43
2018-02-21T21:11:34.421Z,45.33
2018-02-21T21:14:00.683Z,45.57
2018-02-21T21:16:26.898Z,43.80
2018-02-21T21:18:53.211Z,42.87
2018-02-21T21:21:19.426Z,44.60
2018-02-21T21:23:46.035Z,40.73
2018-02-21T21:26:12.256Z,43.90
2018-02-21T21:28:38.616Z,46.63
2018-02-21T21:31:04.931Z,46.17
2018-02-21T21:33:31.519Z,46.83
2018-02-21T21:35:57.783Z,41.57
2018-02-21T21:38:23.997Z,47.27
2018-02-21T21:40:50.365Z,46.80
2018-02-21T21:43:17.510Z,48.50
2018-02-21T21:45:43.755Z,56.57
2018-02-21T21:48:09.986Z,60.47
2018-02-21T21:50:36.243Z,64.77
2018-02-21T21:53:03.218Z,57.37
2018-02-21T21:55:29.564Z,58.57
2018-02-21T21:57:55.826Z,59.10
2018-02-21T22:00:22.203Z,55.93
2018-02-21T22:02:48.465Z,54.00
2018-02-21T22:05:14.786Z,55.90
2018-02-21T22:07:41.043Z,60.57
2018-02-21T22:10:07.375Z,51.87
2018-02-21T22:12:33.682Z,53.13
2018-02-21T22:14:59.998Z,49.27
2018-02-21T22:17:26.976Z,50.20
2018-02-21T22:19:53.398Z,50.10
2018-02-21T22:22:19.643Z,54.10
2018-02-21T22:24:45.994Z,55.10
2018-02-21T22:27:12.254Z,52.73
2018-02-21T22:29:38.450Z,50.13
2018-02-21T22:32:04.691Z,52.30
2018-02-21T22:34:30.915Z,52.53
2018-02-21T22:36:57.139Z,58.17
2018-02-21T22:39:23.383Z,54.03
2018-02-21T22:41:49.627Z,53.47
2018-02-21T22:44:21.846Z,49.20
2018-02-21T22:46:48.078Z,43.03
2018-02-21T22:49:14.326Z,45.97
2018-02-21T22:51:40.546Z,42.67
2018-02-21T22:54:06.820Z,43.57
2018-02-21T22:56:33.359Z,39.70
2018-02-21T22:58:59.599Z,41.83
2018-02-21T23:01:25.839Z,41.17
2018-02-21T23:03:52.062Z,39.57
2018-02-21T23:06:18.403Z,40.00
2018-02-21T23:08:44.727Z,41.20
2018-02-21T23:11:11.707Z,43.90
2018-02-21T23:13:37.961Z,40.17
2018-02-21T23:16:04.195Z,43.80
2018-02-21T23:18:30.418Z,38.83
2018-02-21T23:20:56.650Z,41.87
2018-02-21T23:23:22.913Z,43.33
2018-02-21T23:25:49.140Z,43.60
2018-02-21T23:28:15.364Z,41.50
2018-02-21T23:30:41.628Z,41.77
2018-02-21T23:33:08.579Z,41.33
2018-02-21T23:35:35.543Z,40.90
2018-02-21T23:38:02.906Z,42.23
2018-02-21T23:40:29.187Z,42.83
2018-02-21T23:42:55.571Z,45.07
2018-02-21T23:45:21.787Z,42.37
2018-02-21T23:47:48.282Z,40.83
2018-02-21T23:50:14.502Z,41.70
2018-02-21T23:52:41.215Z,41.63
2018-02-21T23:55:07.426Z,49.63
2018-02-21T23:57:33.670Z,43.97
2018-02-21T23:59:59.908Z,41.77
